sensor_id;sensor_type;location;lat;lon;timestamp;temperature;humidity
18597;DHT22;9428;50.950;6.912;2023-12-20T00:02:42;8.40;99.90
18597;DHT22;9428;50.950;6.912;2023-12-20T00:05:34;8.40;99.90
18597;DHT22;9428;50.950;6.912;2023-12-20T00:08:24;8.40;99.90
18597;DHT22;9428;50.950;6.912;2023-12-20T00:11:11;8.30;99.90
18597;DHT22;9428;50.950;6.912;2023-12-20T00:13:58;8.30;99.90
18597;DHT22;9428;50.950;6.912;2023-12-20T00:16:48;8.40;99.90
18597;DHT22;9428;50.950;6.912;2023-12-20T00:19:35;8.40;99.90
18597;DHT22;9428;50.950;6.912;2023-12-20T00:22:24;8.40;99.90
18597;DHT22;9428;50.950;6.912;2023-12-20T00:25:11;8.30;99.90
18597;DHT22;9428;50.950;6.912;2023-12-20T00:27:58;8.30;99.90
18597;DHT22;9428;50.950;6.912;2023-12-20T00:30:46;8.30;99.90
18597;DHT22;9428;50.950;6.912;2023-12-20T00:33:33;8.40;99.90
18597;DHT22;9428;50.950;6.912;2023-12-20T00:36:20;8.40;99.90
18597;DHT22;9428;50.950;6.912;2023-12-20T00:39:09;8.50;99.90
18597;DHT22;9428;50.950;6.912;2023-12-20T00:41:56;8.50;99.90
18597;DHT22;9428;50.950;6.912;2023-12-20T00:44:43;8.40;99.90
18597;DHT22;9428;50.950;6.912;2023-12-20T00:47:31;8.40;99.90
18597;DHT22;9428;50.950;6.912;2023-12-20T00:50:20;8.40;99.90
18597;DHT22;9428;50.950;6.912;2023-12-20T00:53:08;8.40;99.90
18597;DHT22;9428;50.950;6.912;2023-12-20T00:55:56;8.30;99.90
18597;DHT22;9428;50.950;6.912;2023-12-20T00:58:44;8.40;99.90
18597;DHT22;9428;50.950;6.912;2023-12-20T01:01:34;8.40;99.90
18597;DHT22;9428;50.950;6.912;2023-12-20T01:04:22;8.40;99.90
18597;DHT22;9428;50.950;6.912;2023-12-20T01:07:09;8.40;99.90
18597;DHT22;9428;50.950;6.912;2023-12-20T01:09:56;8.40;99.90
18597;DHT22;9428;50.950;6.912;2023-12-20T01:12:45;7.90;99.90
18597;DHT22;9428;50.950;6.912;2023-12-20T01:15:32;8.20;99.90
18597;DHT22;9428;50.950;6.912;2023-12-20T01:18:19;8.30;99.90
18597;DHT22;9428;50.950;6.912;2023-12-20T01:21:07;8.20;99.90
18597;DHT22;9428;50.950;6.912;2023-12-20T01:23:54;8.30;99.90
18597;DHT22;9428;50.950;6.912;2023-12-20T01:26:42;8.40;99.90
18597;DHT22;9428;50.950;6.912;2023-12-20T01:29:30;8.30;99.90
18597;DHT22;9428;50.950;6.912;2023-12-20T01:32:18;8.20;99.90
18597;DHT22;9428;50.950;6.912;2023-12-20T01:35:05;8.30;99.90
18597;DHT22;9428;50.950;6.912;2023-12-20T01:37:52;8.30;99.90
18597;DHT22;9428;50.950;6.912;2023-12-20T01:40:42;8.30;99.90
18597;DHT22;9428;50.950;6.912;2023-12-20T01:43:30;8.20;99.90
18597;DHT22;9428;50.950;6.912;2023-12-20T01:46:19;8.30;99.90
18597;DHT22;9428;50.950;6.912;2023-12-20T01:49:07;8.20;99.90
18597;DHT22;9428;50.950;6.912;2023-12-20T01:51:55;8.20;99.90
18597;DHT22;9428;50.950;6.912;2023-12-20T01:54:43;8.20;99.90
18597;DHT22;9428;50.950;6.912;2023-12-20T01:57:30;8.20;99.90
18597;DHT22;9428;50.950;6.912;2023-12-20T02:00:18;8.20;99.90
18597;DHT22;9428;50.950;6.912;2023-12-20T02:03:12;8.10;99.90
18597;DHT22;9428;50.950;6.912;2023-12-20T02:06:00;8.00;99.90
18597;DHT22;9428;50.950;6.912;2023-12-20T02:08:47;7.90;99.90
18597;DHT22;9428;50.950;6.912;2023-12-20T02:11:36;7.90;99.90
18597;DHT22;9428;50.950;6.912;2023-12-20T02:14:23;7.80;99.90
18597;DHT22;9428;50.950;6.912;2023-12-20T02:17:11;7.80;99.90
18597;DHT22;9428;50.950;6.912;2023-12-20T02:20:00;7.70;99.90
18597;DHT22;9428;50.950;6.912;2023-12-20T02:22:51;7.70;99.90
18597;DHT22;9428;50.950;6.912;2023-12-20T02:25:39;7.60;99.90
18597;DHT22;9428;50.950;6.912;2023-12-20T02:28:26;7.50;99.90
18597;DHT22;9428;50.950;6.912;2023-12-20T02:31:14;7.50;99.90
18597;DHT22;9428;50.950;6.912;2023-12-20T02:34:02;7.50;99.90
18597;DHT22;9428;50.950;6.912;2023-12-20T02:36:49;7.50;99.90
18597;DHT22;9428;50.950;6.912;2023-12-20T02:39:38;7.40;99.90
18597;DHT22;9428;50.950;6.912;2023-12-20T02:42:25;7.30;99.90
18597;DHT22;9428;50.950;6.912;2023-12-20T02:45:13;7.40;99.90
18597;DHT22;9428;50.950;6.912;2023-12-20T02:48:01;7.30;99.90
18597;DHT22;9428;50.950;6.912;2023-12-20T02:50:48;7.30;99.90
18597;DHT22;9428;50.950;6.912;2023-12-20T02:53:36;7.20;99.90
18597;DHT22;9428;50.950;6.912;2023-12-20T02:56:25;7.30;99.90
18597;DHT22;9428;50.950;6.912;2023-12-20T02:59:12;7.30;99.90
18597;DHT22;9428;50.950;6.912;2023-12-20T03:02:00;7.30;99.90
18597;DHT22;9428;50.950;6.912;2023-12-20T03:04:47;7.20;99.90
18597;DHT22;9428;50.950;6.912;2023-12-20T03:07:36;7.30;99.90
18597;DHT22;9428;50.950;6.912;2023-12-20T03:10:24;7.30;99.90
18597;DHT22;9428;50.950;6.912;2023-12-20T03:13:15;7.30;99.90
18597;DHT22;9428;50.950;6.912;2023-12-20T03:16:08;7.30;99.90
18597;DHT22;9428;50.950;6.912;2023-12-20T03:18:55;7.20;99.90
18597;DHT22;9428;50.950;6.912;2023-12-20T03:21:45;7.40;99.90
18597;DHT22;9428;50.950;6.912;2023-12-20T03:24:32;7.40;99.90
18597;DHT22;9428;50.950;6.912;2023-12-20T03:27:20;7.30;99.90
18597;DHT22;9428;50.950;6.912;2023-12-20T03:30:10;7.30;99.90
18597;DHT22;9428;50.950;6.912;2023-12-20T03:32:58;7.30;99.90
18597;DHT22;9428;50.950;6.912;2023-12-20T03:35:45;7.30;99.90
18597;DHT22;9428;50.950;6.912;2023-12-20T03:38:32;7.40;99.90
18597;DHT22;9428;50.950;6.912;2023-12-20T03:41:20;7.40;99.90
18597;DHT22;9428;50.950;6.912;2023-12-20T03:44:07;7.20;99.90
18597;DHT22;9428;50.950;6.912;2023-12-20T03:47:01;7.40;99.90
18597;DHT22;9428;50.950;6.912;2023-12-20T03:49:49;7.20;99.90
18597;DHT22;9428;50.950;6.912;2023-12-20T03:52:36;7.30;99.90
18597;DHT22;9428;50.950;6.912;2023-12-20T03:55:23;7.40;99.90
18597;DHT22;9428;50.950;6.912;2023-12-20T03:58:11;7.40;99.90
18597;DHT22;9428;50.950;6.912;2023-12-20T04:00:58;7.40;99.90
18597;DHT22;9428;50.950;6.912;2023-12-20T04:03:47;7.30;99.90
18597;DHT22;9428;50.950;6.912;2023-12-20T04:06:34;7.30;99.90
18597;DHT22;9428;50.950;6.912;2023-12-20T04:09:23;7.30;99.90
18597;DHT22;9428;50.950;6.912;2023-12-20T04:12:10;7.30;99.90
18597;DHT22;9428;50.950;6.912;2023-12-20T04:14:57;7.40;99.90
18597;DHT22;9428;50.950;6.912;2023-12-20T04:17:45;7.30;99.90
18597;DHT22;9428;50.950;6.912;2023-12-20T04:20:36;7.30;99.90
18597;DHT22;9428;50.950;6.912;2023-12-20T04:23:23;7.20;99.90
18597;DHT22;9428;50.950;6.912;2023-12-20T04:26:15;7.20;99.90
18597;DHT22;9428;50.950;6.912;2023-12-20T04:29:02;7.30;99.90
18597;DHT22;9428;50.950;6.912;2023-12-20T04:31:50;7.30;99.90
18597;DHT22;9428;50.950;6.912;2023-12-20T04:34:37;7.90;99.90
18597;DHT22;9428;50.950;6.912;2023-12-20T04:37:29;7.30;99.90
18597;DHT22;9428;50.950;6.912;2023-12-20T04:40:16;7.20;99.90
18597;DHT22;9428;50.950;6.912;2023-12-20T04:43:04;7.20;99.90
18597;DHT22;9428;50.950;6.912;2023-12-20T04:45:51;7.20;99.90
18597;DHT22;9428;50.950;6.912;2023-12-20T04:48:46;7.20;99.90
18597;DHT22;9428;50.950;6.912;2023-12-20T04:51:33;7.10;99.90
18597;DHT22;9428;50.950;6.912;2023-12-20T04:54:22;7.10;99.90
18597;DHT22;9428;50.950;6.912;2023-12-20T04:57:10;7.10;99.90
18597;DHT22;9428;50.950;6.912;2023-12-20T04:59:57;7.10;99.90
18597;DHT22;9428;50.950;6.912;2023-12-20T05:02:45;7.20;99.90
18597;DHT22;9428;50.950;6.912;2023-12-20T05:05:32;7.10;99.90
18597;DHT22;9428;50.950;6.912;2023-12-20T05:08:23;7.10;99.90
18597;DHT22;9428;50.950;6.912;2023-12-20T05:11:12;7.10;99.90
18597;DHT22;9428;50.950;6.912;2023-12-20T05:14:04;7.10;99.90
18597;DHT22;9428;50.950;6.912;2023-12-20T05:16:51;7.10;99.90
18597;DHT22;9428;50.950;6.912;2023-12-20T05:19:38;7.00;99.90
18597;DHT22;9428;50.950;6.912;2023-12-20T05:22:26;7.00;99.90
18597;DHT22;9428;50.950;6.912;2023-12-20T05:25:13;7.00;99.90
18597;DHT22;9428;50.950;6.912;2023-12-20T05:28:03;7.00;99.90
18597;DHT22;9428;50.950;6.912;2023-12-20T05:30:50;7.00;99.90
18597;DHT22;9428;50.950;6.912;2023-12-20T05:33:37;7.00;99.90
18597;DHT22;9428;50.950;6.912;2023-12-20T05:36:25;6.90;99.90
18597;DHT22;9428;50.950;6.912;2023-12-20T05:39:12;7.00;99.90
18597;DHT22;9428;50.950;6.912;2023-12-20T05:42:00;7.00;99.90
18597;DHT22;9428;50.950;6.912;2023-12-20T05:44:49;7.00;99.90
18597;DHT22;9428;50.950;6.912;2023-12-20T05:47:36;6.90;99.90
18597;DHT22;9428;50.950;6.912;2023-12-20T05:50:23;7.00;99.90
18597;DHT22;9428;50.950;6.912;2023-12-20T05:53:11;6.90;99.90
18597;DHT22;9428;50.950;6.912;2023-12-20T05:55:58;6.70;99.90
18597;DHT22;9428;50.950;6.912;2023-12-20T05:58:46;7.00;99.90
18597;DHT22;9428;50.950;6.912;2023-12-20T06:01:35;7.00;99.90
18597;DHT22;9428;50.950;6.912;2023-12-20T06:04:22;7.00;99.90
18597;DHT22;9428;50.950;6.912;2023-12-20T06:07:11;7.00;99.90
18597;DHT22;9428;50.950;6.912;2023-12-20T06:09:59;7.00;99.90
18597;DHT22;9428;50.950;6.912;2023-12-20T06:12:46;6.90;99.90
18597;DHT22;9428;50.950;6.912;2023-12-20T06:15:36;7.00;99.90
18597;DHT22;9428;50.950;6.912;2023-12-20T06:18:24;7.00;99.90
18597;DHT22;9428;50.950;6.912;2023-12-20T06:21:12;7.00;99.90
18597;DHT22;9428;50.950;6.912;2023-12-20T06:24:01;7.00;99.90
18597;DHT22;9428;50.950;6.912;2023-12-20T06:26:49;7.10;99.90
18597;DHT22;9428;50.950;6.912;2023-12-20T06:29:36;7.00;99.90
18597;DHT22;9428;50.950;6.912;2023-12-20T06:32:28;7.10;99.90
18597;DHT22;9428;50.950;6.912;2023-12-20T06:35:18;7.10;99.90
18597;DHT22;9428;50.950;6.912;2023-12-20T06:38:05;7.10;99.90
18597;DHT22;9428;50.950;6.912;2023-12-20T06:40:53;7.10;99.90
18597;DHT22;9428;50.950;6.912;2023-12-20T06:43:41;7.10;99.90
18597;DHT22;9428;50.950;6.912;2023-12-20T06:46:28;7.20;99.90
18597;DHT22;9428;50.950;6.912;2023-12-20T06:49:16;7.10;99.90
18597;DHT22;9428;50.950;6.912;2023-12-20T06:52:05;7.20;99.90
18597;DHT22;9428;50.950;6.912;2023-12-20T06:54:52;7.10;99.90
18597;DHT22;9428;50.950;6.912;2023-12-20T06:57:39;7.10;99.90
18597;DHT22;9428;50.950;6.912;2023-12-20T07:00:27;7.10;99.90
18597;DHT22;9428;50.950;6.912;2023-12-20T07:03:15;7.20;99.90
18597;DHT22;9428;50.950;6.912;2023-12-20T07:06:04;7.20;99.90
18597;DHT22;9428;50.950;6.912;2023-12-20T07:08:53;7.30;99.90
18597;DHT22;9428;50.950;6.912;2023-12-20T07:11:40;7.30;99.90
18597;DHT22;9428;50.950;6.912;2023-12-20T07:14:27;7.30;99.90
18597;DHT22;9428;50.950;6.912;2023-12-20T07:17:15;7.30;99.90
18597;DHT22;9428;50.950;6.912;2023-12-20T07:20:03;7.30;99.90
18597;DHT22;9428;50.950;6.912;2023-12-20T07:22:52;7.30;99.90
18597;DHT22;9428;50.950;6.912;2023-12-20T07:25:41;7.30;99.90
18597;DHT22;9428;50.950;6.912;2023-12-20T07:28:28;7.30;99.90
18597;DHT22;9428;50.950;6.912;2023-12-20T07:31:16;7.30;99.90
18597;DHT22;9428;50.950;6.912;2023-12-20T07:34:04;7.30;99.90
18597;DHT22;9428;50.950;6.912;2023-12-20T07:36:51;7.30;99.90
18597;DHT22;9428;50.950;6.912;2023-12-20T07:39:39;7.70;99.90
18597;DHT22;9428;50.950;6.912;2023-12-20T07:42:28;7.30;99.90
18597;DHT22;9428;50.950;6.912;2023-12-20T07:45:16;7.30;99.90
18597;DHT22;9428;50.950;6.912;2023-12-20T07:48:04;7.20;99.90
18597;DHT22;9428;50.950;6.912;2023-12-20T07:50:51;7.30;99.90
18597;DHT22;9428;50.950;6.912;2023-12-20T07:53:39;7.30;99.90
18597;DHT22;9428;50.950;6.912;2023-12-20T07:56:27;7.30;99.90
18597;DHT22;9428;50.950;6.912;2023-12-20T07:59:16;7.30;99.90
18597;DHT22;9428;50.950;6.912;2023-12-20T08:02:03;6.70;99.90
18597;DHT22;9428;50.950;6.912;2023-12-20T08:04:51;7.30;99.90
18597;DHT22;9428;50.950;6.912;2023-12-20T08:07:38;7.40;99.90
18597;DHT22;9428;50.950;6.912;2023-12-20T08:10:26;7.40;99.90
18597;DHT22;9428;50.950;6.912;2023-12-20T08:13:15;7.30;99.90
18597;DHT22;9428;50.950;6.912;2023-12-20T08:16:04;6.80;99.90
18597;DHT22;9428;50.950;6.912;2023-12-20T08:18:52;7.30;99.90
18597;DHT22;9428;50.950;6.912;2023-12-20T08:21:41;7.40;99.90
18597;DHT22;9428;50.950;6.912;2023-12-20T08:24:30;7.40;99.90
18597;DHT22;9428;50.950;6.912;2023-12-20T08:27:17;7.30;99.90
18597;DHT22;9428;50.950;6.912;2023-12-20T08:30:06;7.40;99.90
18597;DHT22;9428;50.950;6.912;2023-12-20T08:32:57;7.30;99.90
18597;DHT22;9428;50.950;6.912;2023-12-20T08:35:46;7.30;99.90
18597;DHT22;9428;50.950;6.912;2023-12-20T08:38:34;7.30;99.90
18597;DHT22;9428;50.950;6.912;2023-12-20T08:41:24;7.40;99.90
18597;DHT22;9428;50.950;6.912;2023-12-20T08:44:14;7.50;99.90
18597;DHT22;9428;50.950;6.912;2023-12-20T08:47:02;7.30;99.90
18597;DHT22;9428;50.950;6.912;2023-12-20T08:49:52;7.40;99.90
18597;DHT22;9428;50.950;6.912;2023-12-20T08:52:42;7.30;99.90
18597;DHT22;9428;50.950;6.912;2023-12-20T08:55:29;7.40;99.90
18597;DHT22;9428;50.950;6.912;2023-12-20T08:58:17;7.40;99.90
18597;DHT22;9428;50.950;6.912;2023-12-20T09:01:04;7.40;99.90
18597;DHT22;9428;50.950;6.912;2023-12-20T09:03:51;7.40;99.90
18597;DHT22;9428;50.950;6.912;2023-12-20T09:06:40;7.30;99.90
18597;DHT22;9428;50.950;6.912;2023-12-20T09:09:30;7.90;99.90
18597;DHT22;9428;50.950;6.912;2023-12-20T09:12:19;7.20;99.90
18597;DHT22;9428;50.950;6.912;2023-12-20T09:15:07;7.20;99.90
18597;DHT22;9428;50.950;6.912;2023-12-20T09:17:54;7.30;99.90
18597;DHT22;9428;50.950;6.912;2023-12-20T09:20:42;7.40;99.90
18597;DHT22;9428;50.950;6.912;2023-12-20T09:23:31;7.30;99.90
18597;DHT22;9428;50.950;6.912;2023-12-20T09:26:18;6.80;99.90
18597;DHT22;9428;50.950;6.912;2023-12-20T09:29:06;7.40;99.90
18597;DHT22;9428;50.950;6.912;2023-12-20T09:31:55;7.40;99.90
18597;DHT22;9428;50.950;6.912;2023-12-20T09:34:43;7.40;99.90
18597;DHT22;9428;50.950;6.912;2023-12-20T09:37:30;7.50;99.90
18597;DHT22;9428;50.950;6.912;2023-12-20T09:40:19;7.50;99.90
18597;DHT22;9428;50.950;6.912;2023-12-20T09:43:11;7.50;99.90
18597;DHT22;9428;50.950;6.912;2023-12-20T09:46:00;7.50;99.90
18597;DHT22;9428;50.950;6.912;2023-12-20T09:48:49;7.50;99.90
18597;DHT22;9428;50.950;6.912;2023-12-20T09:51:36;7.60;99.90
18597;DHT22;9428;50.950;6.912;2023-12-20T09:54:25;7.60;99.90
18597;DHT22;9428;50.950;6.912;2023-12-20T09:57:14;7.60;99.90
18597;DHT22;9428;50.950;6.912;2023-12-20T10:00:04;7.60;99.90
18597;DHT22;9428;50.950;6.912;2023-12-20T10:02:57;7.60;99.90
18597;DHT22;9428;50.950;6.912;2023-12-20T10:05:44;7.20;99.90
18597;DHT22;9428;50.950;6.912;2023-12-20T10:08:33;7.60;99.90
18597;DHT22;9428;50.950;6.912;2023-12-20T10:11:22;7.60;99.90
18597;DHT22;9428;50.950;6.912;2023-12-20T10:14:11;7.60;99.90
18597;DHT22;9428;50.950;6.912;2023-12-20T10:17:02;7.60;99.90
18597;DHT22;9428;50.950;6.912;2023-12-20T10:19:50;7.50;99.90
18597;DHT22;9428;50.950;6.912;2023-12-20T10:22:37;7.60;99.90
18597;DHT22;9428;50.950;6.912;2023-12-20T10:25:25;7.50;99.90
18597;DHT22;9428;50.950;6.912;2023-12-20T10:28:14;7.60;99.90
18597;DHT22;9428;50.950;6.912;2023-12-20T10:31:05;7.60;99.90
18597;DHT22;9428;50.950;6.912;2023-12-20T10:33:52;7.60;99.90
18597;DHT22;9428;50.950;6.912;2023-12-20T10:36:39;7.60;99.90
18597;DHT22;9428;50.950;6.912;2023-12-20T10:39:27;7.60;99.90
18597;DHT22;9428;50.950;6.912;2023-12-20T10:42:14;7.70;99.90
18597;DHT22;9428;50.950;6.912;2023-12-20T10:45:03;7.60;99.90
18597;DHT22;9428;50.950;6.912;2023-12-20T10:47:52;7.60;99.90
18597;DHT22;9428;50.950;6.912;2023-12-20T10:50:41;7.60;99.90
18597;DHT22;9428;50.950;6.912;2023-12-20T10:53:29;7.60;99.90
18597;DHT22;9428;50.950;6.912;2023-12-20T10:56:19;7.60;99.90
18597;DHT22;9428;50.950;6.912;2023-12-20T10:59:08;7.70;99.90
18597;DHT22;9428;50.950;6.912;2023-12-20T11:01:58;7.60;99.90
18597;DHT22;9428;50.950;6.912;2023-12-20T11:04:53;7.70;99.90
18597;DHT22;9428;50.950;6.912;2023-12-20T11:07:46;7.70;99.90
18597;DHT22;9428;50.950;6.912;2023-12-20T11:10:43;7.60;99.90
18597;DHT22;9428;50.950;6.912;2023-12-20T11:13:43;7.60;99.90
18597;DHT22;9428;50.950;6.912;2023-12-20T11:16:31;8.20;99.90
18597;DHT22;9428;50.950;6.912;2023-12-20T11:19:20;7.60;99.90
18597;DHT22;9428;50.950;6.912;2023-12-20T11:22:09;7.60;99.90
18597;DHT22;9428;50.950;6.912;2023-12-20T11:25:00;7.60;99.90
18597;DHT22;9428;50.950;6.912;2023-12-20T11:28:07;7.60;99.90
18597;DHT22;9428;50.950;6.912;2023-12-20T11:30:57;7.70;99.90
18597;DHT22;9428;50.950;6.912;2023-12-20T11:33:46;7.70;99.90
18597;DHT22;9428;50.950;6.912;2023-12-20T11:36:34;7.70;99.90
18597;DHT22;9428;50.950;6.912;2023-12-20T11:39:23;7.80;99.90
18597;DHT22;9428;50.950;6.912;2023-12-20T11:42:14;7.90;99.90
18597;DHT22;9428;50.950;6.912;2023-12-20T11:45:05;7.90;99.90
18597;DHT22;9428;50.950;6.912;2023-12-20T11:47:56;7.90;99.90
18597;DHT22;9428;50.950;6.912;2023-12-20T11:50:45;7.90;99.90
18597;DHT22;9428;50.950;6.912;2023-12-20T11:53:32;7.90;99.90
18597;DHT22;9428;50.950;6.912;2023-12-20T11:56:21;7.90;99.90
18597;DHT22;9428;50.950;6.912;2023-12-20T11:59:09;7.90;99.90
18597;DHT22;9428;50.950;6.912;2023-12-20T12:01:58;7.90;99.90
18597;DHT22;9428;50.950;6.912;2023-12-20T12:04:48;7.90;99.90
18597;DHT22;9428;50.950;6.912;2023-12-20T12:07:36;7.90;99.90
18597;DHT22;9428;50.950;6.912;2023-12-20T12:10:24;7.90;99.90
18597;DHT22;9428;50.950;6.912;2023-12-20T12:13:12;7.90;99.90
18597;DHT22;9428;50.950;6.912;2023-12-20T12:16:01;7.80;99.90
18597;DHT22;9428;50.950;6.912;2023-12-20T12:18:56;7.80;99.90
18597;DHT22;9428;50.950;6.912;2023-12-20T12:21:43;7.80;99.90
18597;DHT22;9428;50.950;6.912;2023-12-20T12:24:31;7.90;99.90
18597;DHT22;9428;50.950;6.912;2023-12-20T12:27:18;7.80;99.90
18597;DHT22;9428;50.950;6.912;2023-12-20T12:30:09;7.80;99.90
18597;DHT22;9428;50.950;6.912;2023-12-20T12:32:58;7.90;99.90
18597;DHT22;9428;50.950;6.912;2023-12-20T12:35:45;7.80;99.90
18597;DHT22;9428;50.950;6.912;2023-12-20T12:38:33;7.90;99.90
18597;DHT22;9428;50.950;6.912;2023-12-20T12:41:21;7.90;99.90
18597;DHT22;9428;50.950;6.912;2023-12-20T12:44:08;7.90;99.90
18597;DHT22;9428;50.950;6.912;2023-12-20T12:46:57;7.90;99.90
18597;DHT22;9428;50.950;6.912;2023-12-20T12:49:45;7.90;99.90
18597;DHT22;9428;50.950;6.912;2023-12-20T12:52:32;7.90;99.90
18597;DHT22;9428;50.950;6.912;2023-12-20T12:55:19;7.90;99.90
18597;DHT22;9428;50.950;6.912;2023-12-20T12:58:07;7.90;99.90
18597;DHT22;9428;50.950;6.912;2023-12-20T13:00:54;7.90;99.90
18597;DHT22;9428;50.950;6.912;2023-12-20T13:03:43;8.00;99.90
18597;DHT22;9428;50.950;6.912;2023-12-20T13:06:30;7.90;99.90
18597;DHT22;9428;50.950;6.912;2023-12-20T13:09:18;7.90;99.90
18597;DHT22;9428;50.950;6.912;2023-12-20T13:12:06;7.90;99.90
18597;DHT22;9428;50.950;6.912;2023-12-20T13:14:54;7.80;99.90
18597;DHT22;9428;50.950;6.912;2023-12-20T13:17:41;8.70;99.90
18597;DHT22;9428;50.950;6.912;2023-12-20T13:20:30;8.00;99.90
18597;DHT22;9428;50.950;6.912;2023-12-20T13:23:17;7.90;99.90
18597;DHT22;9428;50.950;6.912;2023-12-20T13:26:05;7.90;99.90
18597;DHT22;9428;50.950;6.912;2023-12-20T13:28:53;7.90;99.90
18597;DHT22;9428;50.950;6.912;2023-12-20T13:31:43;8.00;99.90
18597;DHT22;9428;50.950;6.912;2023-12-20T13:34:30;8.00;99.90
18597;DHT22;9428;50.950;6.912;2023-12-20T13:37:19;8.10;99.90
18597;DHT22;9428;50.950;6.912;2023-12-20T13:40:07;8.00;99.90
18597;DHT22;9428;50.950;6.912;2023-12-20T13:42:56;8.00;99.90
18597;DHT22;9428;50.950;6.912;2023-12-20T13:45:44;8.00;99.90
18597;DHT22;9428;50.950;6.912;2023-12-20T13:48:31;8.10;99.90
18597;DHT22;9428;50.950;6.912;2023-12-20T13:51:19;7.90;99.90
18597;DHT22;9428;50.950;6.912;2023-12-20T13:54:10;8.00;99.90
18597;DHT22;9428;50.950;6.912;2023-12-20T13:56:58;8.00;99.90
18597;DHT22;9428;50.950;6.912;2023-12-20T13:59:45;8.00;99.90
18597;DHT22;9428;50.950;6.912;2023-12-20T14:02:32;8.20;99.90
18597;DHT22;9428;50.950;6.912;2023-12-20T14:05:19;8.00;99.90
18597;DHT22;9428;50.950;6.912;2023-12-20T14:08:09;8.00;99.90
18597;DHT22;9428;50.950;6.912;2023-12-20T14:10:58;8.10;99.90
18597;DHT22;9428;50.950;6.912;2023-12-20T14:13:47;8.10;99.90
18597;DHT22;9428;50.950;6.912;2023-12-20T14:16:34;8.10;99.90
18597;DHT22;9428;50.950;6.912;2023-12-20T14:19:22;8.10;99.90
18597;DHT22;9428;50.950;6.912;2023-12-20T14:22:09;8.00;99.90
18597;DHT22;9428;50.950;6.912;2023-12-20T14:24:56;8.00;99.90
18597;DHT22;9428;50.950;6.912;2023-12-20T14:27:45;8.10;99.90
18597;DHT22;9428;50.950;6.912;2023-12-20T14:30:33;8.10;99.90
18597;DHT22;9428;50.950;6.912;2023-12-20T14:33:21;8.10;99.90
18597;DHT22;9428;50.950;6.912;2023-12-20T14:36:08;8.20;99.90
18597;DHT22;9428;50.950;6.912;2023-12-20T14:38:56;8.20;99.90
18597;DHT22;9428;50.950;6.912;2023-12-20T14:41:43;8.10;99.90
18597;DHT22;9428;50.950;6.912;2023-12-20T14:44:32;8.20;99.90
18597;DHT22;9428;50.950;6.912;2023-12-20T14:47:19;8.10;99.90
18597;DHT22;9428;50.950;6.912;2023-12-20T14:50:08;8.10;99.90
18597;DHT22;9428;50.950;6.912;2023-12-20T14:52:55;8.10;99.90
18597;DHT22;9428;50.950;6.912;2023-12-20T14:55:43;8.20;99.90
18597;DHT22;9428;50.950;6.912;2023-12-20T14:58:30;8.80;99.90
18597;DHT22;9428;50.950;6.912;2023-12-20T15:01:19;8.10;99.90
18597;DHT22;9428;50.950;6.912;2023-12-20T15:04:08;8.90;99.90
18597;DHT22;9428;50.950;6.912;2023-12-20T15:06:58;8.60;99.90
18597;DHT22;9428;50.950;6.912;2023-12-20T15:09:50;8.20;99.90
18597;DHT22;9428;50.950;6.912;2023-12-20T15:12:37;8.20;99.90
18597;DHT22;9428;50.950;6.912;2023-12-20T15:15:26;8.40;99.90
18597;DHT22;9428;50.950;6.912;2023-12-20T15:18:16;8.20;99.90
18597;DHT22;9428;50.950;6.912;2023-12-20T15:21:04;8.20;99.90
18597;DHT22;9428;50.950;6.912;2023-12-20T15:23:57;8.20;99.90
18597;DHT22;9428;50.950;6.912;2023-12-20T15:26:54;8.20;99.90
18597;DHT22;9428;50.950;6.912;2023-12-20T15:29:46;8.20;99.90
18597;DHT22;9428;50.950;6.912;2023-12-20T15:32:35;8.10;99.90
18597;DHT22;9428;50.950;6.912;2023-12-20T15:35:24;8.10;99.90
18597;DHT22;9428;50.950;6.912;2023-12-20T15:38:12;8.10;99.90
18597;DHT22;9428;50.950;6.912;2023-12-20T15:41:00;8.10;99.90
18597;DHT22;9428;50.950;6.912;2023-12-20T15:43:48;8.10;99.90
18597;DHT22;9428;50.950;6.912;2023-12-20T15:46:35;8.20;99.90
18597;DHT22;9428;50.950;6.912;2023-12-20T15:49:22;8.10;99.90
18597;DHT22;9428;50.950;6.912;2023-12-20T15:52:11;8.10;99.90
18597;DHT22;9428;50.950;6.912;2023-12-20T15:55:01;8.10;99.90
18597;DHT22;9428;50.950;6.912;2023-12-20T15:57:49;8.20;99.90
18597;DHT22;9428;50.950;6.912;2023-12-20T16:00:37;8.10;99.90
18597;DHT22;9428;50.950;6.912;2023-12-20T16:03:27;8.20;99.90
18597;DHT22;9428;50.950;6.912;2023-12-20T16:06:15;8.10;99.90
18597;DHT22;9428;50.950;6.912;2023-12-20T16:09:03;8.10;99.90
18597;DHT22;9428;50.950;6.912;2023-12-20T16:11:51;8.20;99.90
18597;DHT22;9428;50.950;6.912;2023-12-20T16:14:38;8.20;99.90
18597;DHT22;9428;50.950;6.912;2023-12-20T16:17:25;8.20;99.90
18597;DHT22;9428;50.950;6.912;2023-12-20T16:20:13;8.20;99.90
18597;DHT22;9428;50.950;6.912;2023-12-20T16:23:00;8.20;99.90
18597;DHT22;9428;50.950;6.912;2023-12-20T16:25:52;8.10;99.90
18597;DHT22;9428;50.950;6.912;2023-12-20T16:28:42;9.00;99.90
18597;DHT22;9428;50.950;6.912;2023-12-20T16:31:29;8.10;99.90
18597;DHT22;9428;50.950;6.912;2023-12-20T16:34:16;8.10;99.90
18597;DHT22;9428;50.950;6.912;2023-12-20T16:37:04;8.10;99.90
18597;DHT22;9428;50.950;6.912;2023-12-20T16:39:51;8.10;99.90
18597;DHT22;9428;50.950;6.912;2023-12-20T16:42:40;8.20;99.90
18597;DHT22;9428;50.950;6.912;2023-12-20T16:45:27;8.10;99.90
18597;DHT22;9428;50.950;6.912;2023-12-20T16:48:15;8.10;99.90
18597;DHT22;9428;50.950;6.912;2023-12-20T16:51:02;8.10;99.90
18597;DHT22;9428;50.950;6.912;2023-12-20T16:53:50;8.20;99.90
18597;DHT22;9428;50.950;6.912;2023-12-20T16:56:37;7.30;99.90
18597;DHT22;9428;50.950;6.912;2023-12-20T16:59:26;8.20;99.90
18597;DHT22;9428;50.950;6.912;2023-12-20T17:02:14;8.20;99.90
18597;DHT22;9428;50.950;6.912;2023-12-20T17:05:04;8.20;99.90
18597;DHT22;9428;50.950;6.912;2023-12-20T17:07:51;8.40;99.90
18597;DHT22;9428;50.950;6.912;2023-12-20T17:10:42;8.20;99.90
18597;DHT22;9428;50.950;6.912;2023-12-20T17:13:29;9.10;99.90
18597;DHT22;9428;50.950;6.912;2023-12-20T17:16:19;9.10;99.90
18597;DHT22;9428;50.950;6.912;2023-12-20T17:19:06;8.30;99.90
18597;DHT22;9428;50.950;6.912;2023-12-20T17:21:55;8.40;99.90
18597;DHT22;9428;50.950;6.912;2023-12-20T17:24:42;8.30;99.90
18597;DHT22;9428;50.950;6.912;2023-12-20T17:27:30;8.40;99.90
18597;DHT22;9428;50.950;6.912;2023-12-20T17:30:17;8.40;99.90
18597;DHT22;9428;50.950;6.912;2023-12-20T17:33:06;8.40;99.90
18597;DHT22;9428;50.950;6.912;2023-12-20T17:35:54;8.40;99.90
18597;DHT22;9428;50.950;6.912;2023-12-20T17:38:41;8.50;99.90
18597;DHT22;9428;50.950;6.912;2023-12-20T17:41:31;8.40;99.90
18597;DHT22;9428;50.950;6.912;2023-12-20T17:44:21;8.50;99.90
18597;DHT22;9428;50.950;6.912;2023-12-20T17:47:10;9.00;99.90
18597;DHT22;9428;50.950;6.912;2023-12-20T17:49:59;8.50;99.90
18597;DHT22;9428;50.950;6.912;2023-12-20T17:52:46;8.60;99.90
18597;DHT22;9428;50.950;6.912;2023-12-20T17:55:36;9.20;99.90
18597;DHT22;9428;50.950;6.912;2023-12-20T17:58:23;8.60;99.90
18597;DHT22;9428;50.950;6.912;2023-12-20T18:01:12;8.60;99.90
18597;DHT22;9428;50.950;6.912;2023-12-20T18:04:00;9.00;99.90
18597;DHT22;9428;50.950;6.912;2023-12-20T18:06:49;8.60;99.90
18597;DHT22;9428;50.950;6.912;2023-12-20T18:09:37;8.70;99.90
18597;DHT22;9428;50.950;6.912;2023-12-20T18:12:24;8.70;99.90
18597;DHT22;9428;50.950;6.912;2023-12-20T18:15:12;8.70;99.90
18597;DHT22;9428;50.950;6.912;2023-12-20T18:18:00;9.50;99.90
18597;DHT22;9428;50.950;6.912;2023-12-20T18:20:47;8.70;99.90